Time;durP1;ratioP1;P1;durP2;ratioP2;P2;SDS_P1;SDS_P2;PMS_P1;PMS_P2;Temp;Humidity;BMP_temperature;BMP_pressure;BME280_temperature;BME280_humidity;BME280_pressure;Samples;Min_cycle;Max_cycle;Signal;HPM_P1;HPM_P2
2021/08/27 00:02:33;;;;;;;;;;;;;;;19.35;59.94;99341.25;4429122;32;35816;-90
2021/08/27 00:05:05;;;;;;;;;;;;;;;19.18;60.36;99331.91;4424303;32;35728;-91
2021/08/27 00:07:41;;;;;;;;;;;;;;;18.58;62.79;99316.81;4419464;32;34296;-90
2021/08/27 00:10:25;;;;;;;;;;;;;;;18.07;65.01;99306.75;4412662;32;36022;-91
2021/08/27 00:12:55;;;;;;;;;;;;;;;18.06;64.47;99286.25;4416123;32;37251;-90
2021/08/27 00:15:43;;;;;;;;;;;;;;;18.23;64.42;99290.22;4431130;32;34471;-88
2021/08/27 00:18:30;;;;;;;;;;;;;;;18.58;62.73;99297.94;4419171;32;35350;-89
2021/08/27 00:21:05;;;;;;;;;;;;;;;18.76;62.17;99311.62;4395446;32;35210;-88
2021/08/27 00:23:49;;;;;;;;;;;;;;;18.93;62.01;99307.47;4429981;32;35820;-87
2021/08/27 00:26:37;;;;;;;;;;;;;;;19.08;61.75;99323.41;4421480;32;34365;-88
2021/08/27 00:29:25;;;;;;;;;;;;;;;18.95;61.57;99318.88;4408203;32;32524;-88
2021/08/27 00:32:17;;;;;;;;;;;;;;;19.02;61.41;99319.69;4418918;32;34877;-88
2021/08/27 00:34:45;;;;;;;;;;;;;;;19.05;61.50;99315.72;4428090;32;35769;-87
2021/08/27 00:37:29;;;;;;;;;;;;;;;19.01;61.56;99314.50;4428898;32;35335;-88
2021/08/27 00:40:05;;;;;;;;;;;;;;;18.93;62.02;99312.88;4426328;32;34467;-87
2021/08/27 00:42:33;;;;;;;;;;;;;;;19.03;61.58;99307.03;4422310;32;34267;-88
2021/08/27 00:45:05;;;;;;;;;;;;;;;19.00;61.50;99293.97;4418966;32;36281;-87
2021/08/27 00:47:54;;;;;;;;;;;;;;;18.99;59.99;99303.12;4431390;32;33822;-89
2021/08/27 00:50:29;;;;;;;;;;;;;;;18.96;59.90;99293.56;4429689;32;34744;-87
2021/08/27 00:53:18;;;;;;;;;;;;;;;18.91;59.48;99290.69;4420507;32;34101;-87
2021/08/27 00:55:47;;;;;;;;;;;;;;;18.77;60.91;99296.25;4397297;32;36444;-86
2021/08/27 00:58:16;;;;;;;;;;;;;;;18.94;61.06;99298.34;4432939;32;34288;-88
2021/08/27 01:01:01;;;;;;;;;;;;;;;18.55;61.21;99292.97;4420543;32;33409;-86
2021/08/27 01:03:45;;;;;;;;;;;;;;;18.61;61.62;99297.53;4420193;32;35123;-87
2021/08/27 01:06:19;;;;;;;;;;;;;;;18.22;62.75;99307.41;4422478;32;35675;-87
2021/08/27 01:09:09;;;;;;;;;;;;;;;18.40;62.35;99311.19;4420805;32;35547;-87
2021/08/27 01:11:58;;;;;;;;;;;;;;;18.27;62.29;99313.84;4418001;32;33473;-88
2021/08/27 01:14:30;;;;;;;;;;;;;;;18.08;62.87;99320.03;4400923;32;33699;-88
2021/08/27 01:17:09;;;;;;;;;;;;;;;18.13;62.59;99314.84;4418353;32;35130;-87
2021/08/27 01:19:57;;;;;;;;;;;;;;;17.90;63.22;99314.37;4423050;32;34927;-88
2021/08/27 01:23:00;;;;;;;;;;;;;;;17.66;64.01;99314.87;4417688;32;32468;-87
2021/08/27 01:25:30;;;;;;;;;;;;;;;17.52;64.71;99315.87;4432148;32;33548;-88
2021/08/27 01:28:16;;;;;;;;;;;;;;;17.60;64.71;99313.00;4406456;32;36305;-89
2021/08/27 01:31:06;;;;;;;;;;;;;;;17.25;65.90;99302.44;4418706;32;36988;-88
2021/08/27 01:34:01;;;;;;;;;;;;;;;17.39;65.69;99301.53;4429330;32;34506;-87
2021/08/27 01:36:45;;;;;;;;;;;;;;;17.22;66.31;99307.37;4417677;32;35072;-86
2021/08/27 01:39:16;;;;;;;;;;;;;;;17.23;66.90;99299.13;4419352;32;37733;-87
2021/08/27 01:42:03;;;;;;;;;;;;;;;17.30;66.71;99296.47;4420546;32;34098;-87
2021/08/27 01:44:53;;;;;;;;;;;;;;;17.40;66.70;99292.44;4419422;32;35053;-87
2021/08/27 01:47:25;;;;;;;;;;;;;;;17.54;66.47;99308.44;4421435;32;34089;-87
2021/08/27 01:50:09;;;;;;;;;;;;;;;17.52;66.72;99304.28;4430731;32;35006;-86
2021/08/27 01:52:39;;;;;;;;;;;;;;;17.83;65.73;99300.06;4423610;32;34582;-88
2021/08/27 01:55:22;;;;;;;;;;;;;;;17.80;65.88;99296.94;4432722;32;32652;-87
2021/08/27 01:58:06;;;;;;;;;;;;;;;17.94;65.36;99293.28;4422023;32;34251;-88
2021/08/27 02:00:35;;;;;;;;;;;;;;;18.02;65.18;99293.91;4418875;32;35387;-87
2021/08/27 02:03:24;;;;;;;;;;;;;;;17.91;65.36;99299.03;4419806;32;34380;-88
2021/08/27 02:06:09;;;;;;;;;;;;;;;18.14;64.74;99304.91;4417674;32;34008;-87
2021/08/27 02:08:41;;;;;;;;;;;;;;;18.17;64.78;99304.50;4418949;32;33840;-88
2021/08/27 02:11:13;;;;;;;;;;;;;;;18.07;65.01;99304.06;4417115;32;35532;-87
2021/08/27 02:13:43;;;;;;;;;;;;;;;18.28;64.36;99307.41;4432652;32;35089;-88
2021/08/27 02:16:16;;;;;;;;;;;;;;;18.35;64.17;99312.84;4417945;32;33430;-88
2021/08/27 02:19:00;;;;;;;;;;;;;;;18.32;64.21;99313.25;4416169;32;33837;-89
2021/08/27 02:21:32;;;;;;;;;;;;;;;18.36;64.11;99311.81;4420058;32;34838;-87
2021/08/27 02:24:23;;;;;;;;;;;;;;;18.42;64.14;99301.03;4415245;32;34315;-87
2021/08/27 02:27:11;;;;;;;;;;;;;;;18.53;63.63;99296.91;4403973;32;32194;-88
2021/08/27 02:29:55;;;;;;;;;;;;;;;18.54;63.57;99296.72;4407343;32;34614;-89
2021/08/27 02:32:32;;;;;;;;;;;;;;;18.54;63.67;99293.19;4425205;32;35697;-88
2021/08/27 02:35:07;;;;;;;;;;;;;;;18.46;64.01;99294.22;4419328;32;34364;-88
2021/08/27 02:37:39;;;;;;;;;;;;;;;18.53;63.85;99283.44;4431918;32;34304;-87
2021/08/27 02:40:22;;;;;;;;;;;;;;;18.48;63.91;99280.53;4420473;32;33728;-87
2021/08/27 02:43:02;;;;;;;;;;;;;;;18.45;64.02;99270.16;4429533;32;35171;-91
2021/08/27 02:45:34;;;;;;;;;;;;;;;18.41;64.09;99275.13;4421800;32;36431;-88
2021/08/27 02:48:30;;;;;;;;;;;;;;;18.16;64.96;99284.00;4428877;32;32847;-88
2021/08/27 02:51:19;;;;;;;;;;;;;;;18.12;64.78;99280.03;4418662;32;33955;-88
2021/08/27 02:54:07;;;;;;;;;;;;;;;18.12;64.56;99277.34;4421295;32;36749;-88
2021/08/27 02:56:51;;;;;;;;;;;;;;;17.95;65.23;99276.91;4430460;32;34214;-88
2021/08/27 02:59:39;;;;;;;;;;;;;;;18.13;64.91;99271.75;4421379;32;34003;-88
2021/08/27 03:02:27;;;;;;;;;;;;;;;18.14;64.80;99267.22;4417202;32;35325;-88
2021/08/27 03:05:22;;;;;;;;;;;;;;;18.07;64.82;99275.25;4435928;32;37318;-89
2021/08/27 03:08:12;;;;;;;;;;;;;;;18.21;64.71;99286.88;4426375;32;35169;-89
2021/08/27 03:11:12;;;;;;;;;;;;;;;18.02;65.01;99293.06;4410042;32;35392;-87
2021/08/27 03:13:43;;;;;;;;;;;;;;;17.80;65.54;99294.25;4415717;32;34888;-87
2021/08/27 03:16:31;;;;;;;;;;;;;;;17.79;65.42;99289.91;4428216;32;36644;-88
2021/08/27 03:18:59;;;;;;;;;;;;;;;17.69;65.65;99295.66;4407175;32;36201;-89
2021/08/27 03:21:49;;;;;;;;;;;;;;;17.91;65.11;99305.25;4418238;32;34861;-89
2021/08/27 03:24:33;;;;;;;;;;;;;;;17.73;65.64;99310.38;4417752;32;36426;-88
2021/08/27 03:27:15;;;;;;;;;;;;;;;17.97;65.00;99309.00;4428830;32;35160;-88
2021/08/27 03:29:53;;;;;;;;;;;;;;;17.89;65.27;99293.88;4419425;32;34662;-88
2021/08/27 03:32:28;;;;;;;;;;;;;;;17.81;65.33;99304.81;4419697;32;33194;-88
2021/08/27 03:35:16;;;;;;;;;;;;;;;17.67;65.38;99308.47;4429448;32;34037;-88
2021/08/27 03:37:45;;;;;;;;;;;;;;;17.61;65.59;99320.06;4402415;32;35804;-88
2021/08/27 03:40:21;;;;;;;;;;;;;;;17.51;65.66;99308.81;4418167;32;33952;-88
2021/08/27 03:42:52;;;;;;;;;;;;;;;17.88;64.82;99310.22;4415527;32;33904;-88
2021/08/27 03:45:39;;;;;;;;;;;;;;;17.84;64.86;99308.94;4417543;32;33522;-87
2021/08/27 03:48:16;;;;;;;;;;;;;;;17.92;64.74;99327.59;4432554;32;34565;-88
2021/08/27 03:50:59;;;;;;;;;;;;;;;17.90;64.84;99337.75;4412351;32;35080;-89
2021/08/27 03:53:37;;;;;;;;;;;;;;;17.74;65.15;99341.62;4430853;32;33212;-87
2021/08/27 03:56:09;;;;;;;;;;;;;;;17.73;65.02;99333.75;4417515;32;34754;-87
2021/08/27 03:58:56;;;;;;;;;;;;;;;17.84;64.69;99331.31;4409585;32;37035;-88
2021/08/27 04:01:25;;;;;;;;;;;;;;;17.87;64.79;99338.16;4435437;32;34652;-88
2021/08/27 04:04:01;;;;;;;;;;;;;;;17.81;65.09;99329.03;4435443;32;33949;-87
2021/08/27 04:06:44;;;;;;;;;;;;;;;17.76;65.09;99341.44;4430336;32;33964;-88
2021/08/27 04:09:20;;;;;;;;;;;;;;;17.84;64.42;99347.47;4403977;32;37329;-87
2021/08/27 04:11:51;;;;;;;;;;;;;;;17.51;65.43;99354.53;4417744;32;35064;-87
2021/08/27 04:14:23;;;;;;;;;;;;;;;17.40;65.90;99362.34;4418730;32;33951;-87
2021/08/27 04:17:01;;;;;;;;;;;;;;;17.59;65.35;99365.12;4431370;32;34023;-88
2021/08/27 04:19:33;;;;;;;;;;;;;;;17.10;66.61;99362.72;4420972;32;35148;-89
2021/08/27 04:22:21;;;;;;;;;;;;;;;17.44;65.66;99358.22;4421355;32;35182;-87
2021/08/27 04:24:56;;;;;;;;;;;;;;;17.60;65.33;99357.91;4431023;32;34658;-89
2021/08/27 04:27:32;;;;;;;;;;;;;;;17.48;65.15;99354.94;4420745;32;34911;-89
2021/08/27 04:30:15;;;;;;;;;;;;;;;17.54;64.84;99342.56;4418310;32;35921;-89
2021/08/27 04:33:03;;;;;;;;;;;;;;;17.65;64.53;99340.13;4408636;32;35522;-89
2021/08/27 04:35:32;;;;;;;;;;;;;;;17.66;64.71;99335.59;4417499;32;32884;-88
2021/08/27 04:38:02;;;;;;;;;;;;;;;17.90;64.05;99324.28;4429608;32;34903;-88
2021/08/27 04:40:37;;;;;;;;;;;;;;;17.95;63.92;99311.88;4419929;32;34306;-89
2021/08/27 04:43:12;;;;;;;;;;;;;;;17.96;63.66;99320.81;4421172;32;33711;-89
2021/08/27 04:45:48;;;;;;;;;;;;;;;17.96;63.35;99326.19;4417863;32;33789;-89
2021/08/27 04:48:20;;;;;;;;;;;;;;;17.80;63.89;99326.53;4429244;32;33540;-88
2021/08/27 04:51:08;;;;;;;;;;;;;;;17.95;63.32;99317.28;4418340;32;34710;-89
2021/08/27 04:53:51;;;;;;;;;;;;;;;17.97;63.06;99319.78;4406257;32;36119;-89
2021/08/27 04:56:21;;;;;;;;;;;;;;;17.84;63.54;99325.09;4429390;32;33955;-88
2021/08/27 04:58:58;;;;;;;;;;;;;;;17.85;63.62;99332.16;4420031;32;34986;-89
2021/08/27 05:01:30;;;;;;;;;;;;;;;17.96;63.34;99320.81;4429400;32;34865;-88
2021/08/27 05:04:00;;;;;;;;;;;;;;;17.95;63.51;99327.22;4405132;32;35781;-88
2021/08/27 05:06:48;;;;;;;;;;;;;;;17.88;63.74;99323.66;4432239;32;32888;-89
2021/08/27 05:09:35;;;;;;;;;;;;;;;17.93;63.63;99324.72;4422864;32;35000;-87
2021/08/27 05:12:07;;;;;;;;;;;;;;;17.92;63.50;99335.69;4419068;32;35693;-88
2021/08/27 05:14:38;;;;;;;;;;;;;;;17.96;63.33;99329.69;4426816;32;34337;-88
2021/08/27 05:17:14;;;;;;;;;;;;;;;17.78;63.79;99333.97;4429407;32;35413;-88
2021/08/27 05:19:46;;;;;;;;;;;;;;;17.99;63.40;99326.62;4421643;32;34566;-88
2021/08/27 05:22:17;;;;;;;;;;;;;;;17.87;63.73;99333.59;4428558;32;35718;-88
2021/08/27 05:24:53;;;;;;;;;;;;;;;18.06;62.95;99346.28;4418459;32;35230;-88
2021/08/27 05:27:29;;;;;;;;;;;;;;;18.06;63.03;99346.28;4401200;32;35218;-88
2021/08/27 05:30:21;;;;;;;;;;;;;;;18.10;63.20;99331.41;4392152;32;35075;-88
2021/08/27 05:33:08;;;;;;;;;;;;;;;18.16;63.30;99335.16;4424991;32;35012;-87
2021/08/27 05:35:53;;;;;;;;;;;;;;;18.09;62.61;99337.81;4417275;32;35399;-87
2021/08/27 05:38:41;;;;;;;;;;;;;;;17.85;63.14;99351.81;4428952;32;32105;-89
2021/08/27 05:41:16;;;;;;;;;;;;;;;17.69;64.03;99365.59;4427912;32;34512;-88
2021/08/27 05:44:00;;;;;;;;;;;;;;;17.96;63.49;99347.72;4408730;32;35161;-89
2021/08/27 05:46:28;;;;;;;;;;;;;;;18.14;63.15;99342.59;4409612;32;34358;-89
2021/08/27 05:49:16;;;;;;;;;;;;;;;17.89;63.92;99354.94;4415475;32;34057;-87
2021/08/27 05:52:03;;;;;;;;;;;;;;;18.08;63.47;99340.72;4409197;32;36010;-88
2021/08/27 05:54:40;;;;;;;;;;;;;;;18.04;63.50;99339.47;4420412;32;35410;-88
2021/08/27 05:57:09;;;;;;;;;;;;;;;18.20;62.16;99341.78;4428461;32;33612;-88
2021/08/27 05:59:40;;;;;;;;;;;;;;;18.31;62.32;99343.91;4432619;32;34463;-88
2021/08/27 06:02:30;;;;;;;;;;;;;;;18.13;63.41;99335.56;4418603;32;34865;-88
2021/08/27 06:05:02;;;;;;;;;;;;;;;18.06;63.49;99329.31;4431949;32;33874;-87
2021/08/27 06:07:49;;;;;;;;;;;;;;;17.96;63.36;99336.94;4433330;32;36529;-89
2021/08/27 06:10:21;;;;;;;;;;;;;;;18.18;63.28;99333.91;4421583;32;35222;-88
2021/08/27 06:12:49;;;;;;;;;;;;;;;18.12;63.38;99339.25;4409432;32;34281;-88
2021/08/27 06:15:19;;;;;;;;;;;;;;;18.22;63.15;99353.19;4416427;32;35560;-89
2021/08/27 06:17:48;;;;;;;;;;;;;;;18.07;62.94;99347.94;4418008;32;34847;-88
2021/08/27 06:20:18;;;;;;;;;;;;;;;18.28;62.58;99358.59;4417789;32;32565;-89
2021/08/27 06:22:47;;;;;;;;;;;;;;;18.25;62.69;99353.59;4430905;32;33828;-88
2021/08/27 06:25:23;;;;;;;;;;;;;;;18.50;62.04;99356.59;4419051;32;36225;-87
2021/08/27 06:28:07;;;;;;;;;;;;;;;18.39;62.51;99355.31;4409967;32;35490;-87
2021/08/27 06:30:43;;;;;;;;;;;;;;;18.27;63.16;99364.16;4421877;32;33012;-87
2021/08/27 06:33:13;;;;;;;;;;;;;;;18.13;62.77;99363.28;4422075;32;34612;-87
2021/08/27 06:35:48;;;;;;;;;;;;;;;18.52;61.98;99373.38;4404205;32;36549;-87
2021/08/27 06:38:26;;;;;;;;;;;;;;;18.27;62.66;99383.84;4418320;32;34964;-89
2021/08/27 06:41:03;;;;;;;;;;;;;;;18.44;62.35;99385.16;4415256;32;35187;-88
2021/08/27 06:43:48;;;;;;;;;;;;;;;18.42;62.38;99376.44;4415214;32;35921;-87
2021/08/27 06:46:21;;;;;;;;;;;;;;;18.24;62.53;99383.44;4417653;32;34534;-87
2021/08/27 06:49:12;;;;;;;;;;;;;;;17.89;63.50;99388.06;4426726;32;33874;-88
2021/08/27 06:51:59;;;;;;;;;;;;;;;18.02;63.40;99393.50;4423041;32;32484;-86
2021/08/27 06:54:29;;;;;;;;;;;;;;;18.53;62.29;99391.19;4422263;32;35941;-86
2021/08/27 06:57:17;;;;;;;;;;;;;;;18.38;62.70;99390.53;4419516;32;36959;-87
2021/08/27 07:00:11;;;;;;;;;;;;;;;;;;;;;
2021/08/27 07:10:46;;;;;;;;;;;;;;;17.60;65.11;99393.69;4417482;32;34880;-89
2021/08/27 07:14:07;;;;;;;;;;;;;;;17.54;65.01;99397.19;4402198;32;35759;-89
2021/08/27 07:17:24;;;;;;;;;;;;;;;17.76;64.92;99403.31;4411983;32;34394;-89
2021/08/27 07:21:31;;;;;;;;;;;;;;;17.82;64.67;99403.34;4417992;32;35702;-89
2021/08/27 07:31:03;;;;;;;;;;;;;;;18.29;64.37;99414.13;4307260;33;35358;-92
2021/08/27 07:36:50;;;;;;;;;;;;;;;18.72;62.74;99399.28;4335177;33;36136;-89
2021/08/27 07:40:00;;;;;;;;;;;;;;;;;;;;;
2021/08/27 07:43:08;;;;;;;;;;;;;;;19.20;60.97;99400.81;4315044;33;32539;-92
2021/08/27 07:46:48;;;;;;;;;;;;;;;19.04;61.67;99405.75;4330283;33;34654;-89
2021/08/27 07:56:32;;;;;;;;;;;;;;;19.18;60.76;99416.34;4355516;32;32137;-91
2021/08/27 07:59:22;;;;;;;;;;;;;;;19.50;59.96;99415.50;4359482;32;33747;-89
2021/08/27 08:06:04;;;;;;;;;;;;;;;;;;;;;
2021/08/27 08:09:43;;;;;;;;;;;;;;;19.82;60.35;99428.09;4419459;32;32508;-90
2021/08/27 08:20:16;;;;;;;;;;;;;;;20.19;58.84;99429.25;4417837;32;34699;-89
2021/08/27 08:26:49;;;;;;;;;;;;;;;20.59;56.07;99421.56;4414629;32;34500;-91
2021/08/27 08:36:58;;;;;;;;;;;;;;;20.40;54.72;99439.75;4409505;32;33350;-89
2021/08/27 08:50:24;;;;;;;;;;;;;;;21.27;49.90;99438.78;4341652;32;33677;-88
2021/08/27 09:00:04;;;;;;;;;;;;;;;21.16;52.65;99451.16;4263414;33;34946;-87
2021/08/27 09:07:21;;;;;;;;;;;;;;;;;;;;;
2021/08/27 09:17:31;;;;;;;;;;;;;;;21.21;50.64;99455.91;4235705;33;32683;-88
2021/08/27 09:23:50;;;;;;;;;;;;;;;;;;;;;
2021/08/27 09:27:21;;;;;;;;;;;;;;;20.75;51.94;99460.75;4284845;33;33863;-87
2021/08/27 09:34:28;;;;;;;;;;;;;;;20.28;51.40;99463.91;4254495;33;36437;-89
2021/08/27 09:41:16;;;;;;;;;;;;;;;20.69;51.89;99458.94;4310131;32;35567;-87
2021/08/27 09:54:38;;;;;;;;;;;;;;;21.52;50.13;99464.78;4306884;33;34933;-89
2021/08/27 10:01:15;;;;;;;;;;;;;;;21.48;49.43;99469.00;4302550;33;34563;-91
2021/08/27 10:17:50;;;;;;;;;;;;;;;;;;;;;
2021/08/27 10:28:09;;;;;;;;;;;;;;;22.25;47.35;99458.44;4276439;33;32972;-91
2021/08/27 10:31:26;;;;;;;;;;;;;;;22.05;47.38;99465.13;4293410;33;34388;-88
2021/08/27 10:34:43;;;;;;;;;;;;;;;22.37;46.84;99453.09;4286712;33;34111;-90
2021/08/27 10:41:42;;;;;;;;;;;;;;;22.21;47.51;99449.12;4321472;33;34312;-85
2021/08/27 10:52:00;;;;;;;;;;;;;;;21.61;46.97;99462.66;4292052;33;33729;-86
2021/08/27 10:58:45;;;;;;;;;;;;;;;21.23;47.77;99472.75;4300958;33;34696;-87
2021/08/27 11:01:50;;;;;;;;;;;;;;;21.46;47.12;99467.56;4298626;33;34590;-86
2021/08/27 11:10:32;;;;;;;;;;;;;;;22.57;44.03;99470.75;4054935;33;7256642;-86
2021/08/27 11:13:29;;;;;;;;;;;;;;;22.12;45.77;99477.56;4303879;33;34239;-88
2021/08/27 11:17:00;;;;;;;;;;;;;;;21.49;46.49;99486.06;4305564;33;33847;-87
2021/08/27 11:20:18;;;;;;;;;;;;;;;;;;;;;
2021/08/27 11:31:06;;;;;;;;;;;;;;;21.66;45.23;99458.25;4312776;33;33870;-88
2021/08/27 11:34:07;;;;;;;;;;;;;;;21.59;45.03;99462.03;4262309;33;33182;-90
2021/08/27 11:40:35;;;;;;;;;;;;;;;;;;;;;
2021/08/27 11:47:35;;;;;;;;;;;;;;;23.35;42.92;99433.53;4236333;33;35116;-88
2021/08/27 11:57:25;;;;;;;;;;;;;;;24.52;39.33;99432.94;4292552;33;34581;-88
2021/08/27 12:04:03;;;;;;;;;;;;;;;;;;;;;
2021/08/27 12:13:24;;;;;;;;;;;;;;;;;;;;;
2021/08/27 12:20:56;;;;;;;;;;;;;;;24.98;37.46;99446.34;4306129;33;37002;-88
2021/08/27 12:24:09;;;;;;;;;;;;;;;25.40;35.92;99444.13;4306818;32;34730;-88
2021/08/27 12:27:15;;;;;;;;;;;;;;;25.65;35.88;99436.31;4341821;32;32818;-88
2021/08/27 12:30:36;;;;;;;;;;;;;;;25.92;35.33;99429.97;4339058;32;35282;-89
2021/08/27 12:33:44;;;;;;;;;;;;;;;;;;;;;
2021/08/27 12:45:24;;;;;;;;;;;;;;;25.86;36.05;99427.41;4318526;32;33322;-86
2021/08/27 12:48:37;;;;;;;;;;;;;;;25.22;34.93;99425.31;4334987;32;35016;-90
2021/08/27 12:51:16;;;;;;;;;;;;;;;;;;;;;
2021/08/27 13:02:02;;;;;;;;;;;;;;;24.92;35.56;99430.19;4295171;33;35544;-89
2021/08/27 13:05:16;;;;;;;;;;;;;;;24.15;36.83;99431.63;4298433;33;33796;-89
2021/08/27 13:16:24;;;;;;;;;;;;;;;24.26;37.41;99440.84;4289066;33;35599;-88
2021/08/27 13:29:20;;;;;;;;;;;;;;;24.12;37.09;99453.03;4278023;33;35907;-87
2021/08/27 13:35:22;;;;;;;;;;;;;;;24.05;37.84;99447.72;4272956;33;31955;-91
2021/08/27 13:48:21;;;;;;;;;;;;;;;;;;;;;
2021/08/27 14:09:40;;;;;;;;;;;;;;;;;;;;;
2021/08/27 14:16:37;;;;;;;;;;;;;;;23.48;38.47;99471.31;4291623;33;31787;-90
2021/08/27 14:19:43;;;;;;;;;;;;;;;23.23;40.37;99474.22;4337419;33;34029;-87
2021/08/27 14:23:34;;;;;;;;;;;;;;;;;;;;;
2021/08/27 14:32:41;;;;;;;;;;;;;;;23.41;37.56;99479.56;4351575;32;33484;-93
2021/08/27 14:39:37;;;;;;;;;;;;;;;23.27;38.67;99478.13;4349992;32;33909;-87
2021/08/27 14:46:14;;;;;;;;;;;;;;;22.96;40.16;99483.81;4359836;32;34310;-88
2021/08/27 14:49:00;;;;;;;;;;;;;;;;;;;;;
2021/08/27 14:52:19;;;;;;;;;;;;;;;23.18;39.99;99482.25;4374116;32;34551;-88
2021/08/27 14:55:40;;;;;;;;;;;;;;;23.31;40.41;99492.06;4341572;32;32146;-88
2021/08/27 15:03:04;;;;;;;;;;;;;;;22.98;38.80;99494.41;4354607;32;36572;-88
2021/08/27 15:05:28;;;;;;;;;;;;;;;;;;;;;
2021/08/27 15:08:37;;;;;;;;;;;;;;;;;;;;;
2021/08/27 15:19:07;;;;;;;;;;;;;;;;;;;;;
2021/08/27 15:22:43;;;;;;;;;;;;;;;24.62;36.40;99493.00;4351627;32;34288;-87
2021/08/27 15:28:39;;;;;;;;;;;;;;;;;;;;;
2021/08/27 15:41:37;;;;;;;;;;;;;;;;;;;;;
2021/08/27 15:57:48;;;;;;;;;;;;;;;;;;;;;
2021/08/27 16:05:10;;;;;;;;;;;;;;;23.45;38.42;99513.34;4360583;32;33887;-89
2021/08/27 16:08:07;;;;;;;;;;;;;;;;;;;;;
2021/08/27 16:24:15;;;;;;;;;;;;;;;22.89;40.30;99510.19;4352221;32;35208;-88
2021/08/27 16:27:31;;;;;;;;;;;;;;;;;;;;;
2021/08/27 16:37:32;;;;;;;;;;;;;;;22.70;40.85;99526.72;4386419;32;33966;-87
2021/08/27 16:40:58;;;;;;;;;;;;;;;22.36;41.27;99524.62;4429799;32;33037;-87
2021/08/27 16:44:27;;;;;;;;;;;;;;;;;;;;;
2021/08/27 16:48:06;;;;;;;;;;;;;;;22.57;41.08;99525.00;4426817;32;36698;-88
2021/08/27 16:51:24;;;;;;;;;;;;;;;22.64;41.42;99525.75;4415242;32;35797;-87
2021/08/27 16:56:51;;;;;;;;;;;;;;;22.66;41.75;99530.97;4397943;32;35394;-87
2021/08/27 17:00:32;;;;;;;;;;;;;;;22.55;42.13;99520.87;4420564;32;36197;-90
2021/08/27 17:03:58;;;;;;;;;;;;;;;22.29;42.59;99530.09;4408143;32;34030;-87
2021/08/27 17:14:17;;;;;;;;;;;;;;;21.78;43.02;99534.16;4389985;32;35855;-89
2021/08/27 17:24:51;;;;;;;;;;;;;;;21.43;43.12;99549.22;4410388;32;35367;-87
2021/08/27 17:37:20;;;;;;;;;;;;;;;21.11;43.38;99571.88;4361111;32;32985;-87
2021/08/27 17:47:42;;;;;;;;;;;;;;;;;;;;;
2021/08/27 17:55:13;;;;;;;;;;;;;;;21.18;43.92;99592.44;4329323;33;36471;-88
2021/08/27 18:01:20;;;;;;;;;;;;;;;;;;;;;
2021/08/27 18:08:16;;;;;;;;;;;;;;;20.72;46.20;99613.44;4335494;32;35694;-87
2021/08/27 18:18:29;;;;;;;;;;;;;;;;;;;;;
2021/08/27 18:26:09;;;;;;;;;;;;;;;20.56;46.45;99636.56;4365624;32;35087;-88
2021/08/27 18:28:49;;;;;;;;;;;;;;;20.45;47.04;99638.03;4391744;32;35355;-88
2021/08/27 18:32:21;;;;;;;;;;;;;;;20.31;47.46;99640.97;4431943;32;33507;-87
2021/08/27 18:36:07;;;;;;;;;;;;;;;20.28;47.87;99650.31;4420677;32;34187;-87
2021/08/27 18:39:27;;;;;;;;;;;;;;;20.13;48.64;99646.19;4407209;32;33332;-87
2021/08/27 18:42:30;;;;;;;;;;;;;;;20.16;48.01;99649.31;4426367;32;33201;-88
2021/08/27 18:58:35;;;;;;;;;;;;;;;;;;;;;
2021/08/27 19:04:58;;;;;;;;;;;;;;;19.61;49.12;99663.16;4313118;33;36632;-86
2021/08/27 19:08:48;;;;;;;;;;;;;;;19.46;49.35;99675.97;4304044;33;32321;-87
2021/08/27 19:19:13;;;;;;;;;;;;;;;19.19;51.16;99678.81;4272321;33;34533;-87
2021/08/27 19:25:21;;;;;;;;;;;;;;;19.04;52.16;99683.47;4290408;33;34254;-86
2021/08/27 19:34:18;;;;;;;;;;;;;;;18.87;50.85;99692.94;4258874;33;33994;-93
2021/08/27 19:36:46;;;;;;;;;;;;;;;18.79;50.86;99691.22;4247066;33;32854;-91
2021/08/27 19:39:18;;;;;;;;;;;;;;;18.90;50.37;99692.53;4259059;33;35421;-92
2021/08/27 19:41:46;;;;;;;;;;;;;;;18.76;50.73;99698.88;4291953;33;34086;-93
2021/08/27 19:44:20;;;;;;;;;;;;;;;18.68;51.37;99699.88;4343000;32;33701;-92
2021/08/27 19:46:52;;;;;;;;;;;;;;;18.67;51.21;99698.22;4336215;33;34356;-91
2021/08/27 19:49:20;;;;;;;;;;;;;;;18.63;51.42;99701.50;4330690;33;37683;-87
2021/08/27 19:51:48;;;;;;;;;;;;;;;18.55;51.48;99701.66;4330702;33;34499;-92
2021/08/27 19:54:18;;;;;;;;;;;;;;;18.48;51.46;99703.47;4322389;32;33105;-94
2021/08/27 19:56:46;;;;;;;;;;;;;;;18.39;52.15;99705.47;4365716;32;33605;-91
2021/08/27 19:59:16;;;;;;;;;;;;;;;18.35;51.99;99712.25;4387573;32;34695;-90
2021/08/27 20:01:44;;;;;;;;;;;;;;;18.28;52.45;99715.91;4383701;32;34084;-92
2021/08/27 20:04:17;;;;;;;;;;;;;;;18.20;52.52;99719.59;4377779;32;32734;-91
2021/08/27 20:06:45;;;;;;;;;;;;;;;18.16;52.45;99723.69;4435805;32;33610;-91
2021/08/27 20:09:15;;;;;;;;;;;;;;;17.98;53.51;99736.81;4436967;32;36981;-92
2021/08/27 20:11:44;;;;;;;;;;;;;;;17.95;53.94;99726.41;4436591;32;34438;-92
2021/08/27 20:14:12;;;;;;;;;;;;;;;18.00;53.69;99734.75;4439146;32;34008;-89
2021/08/27 20:16:39;;;;;;;;;;;;;;;17.98;53.93;99736.81;4435412;32;34833;-92
2021/08/27 20:19:14;;;;;;;;;;;;;;;18.04;52.94;99727.13;4436389;32;35517;-88
2021/08/27 20:21:44;;;;;;;;;;;;;;;17.86;53.31;99724.84;4437776;32;34319;-92
2021/08/27 20:24:13;;;;;;;;;;;;;;;17.86;53.25;99726.72;4438089;32;33450;-92
2021/08/27 20:26:41;;;;;;;;;;;;;;;17.70;53.80;99722.44;4436751;32;35478;-91
2021/08/27 20:29:11;;;;;;;;;;;;;;;17.40;54.95;99720.03;4437979;32;35123;-91
2021/08/27 20:31:39;;;;;;;;;;;;;;;17.60;53.96;99716.50;4435651;32;33574;-90
2021/08/27 20:34:07;;;;;;;;;;;;;;;17.50;54.57;99723.25;4437913;32;34092;-93
2021/08/27 20:36:36;;;;;;;;;;;;;;;17.06;56.68;99727.00;4437583;32;33739;-94
2021/08/27 20:39:05;;;;;;;;;;;;;;;17.30;55.44;99724.00;4440815;32;35420;-94
2021/08/27 20:41:33;;;;;;;;;;;;;;;17.40;55.16;99721.88;4436173;32;34573;-90
2021/08/27 20:44:04;;;;;;;;;;;;;;;17.43;54.25;99725.00;4438326;32;33612;-92
2021/08/27 20:46:31;;;;;;;;;;;;;;;17.37;54.66;99717.69;4411330;32;34447;-93
2021/08/27 20:49:00;;;;;;;;;;;;;;;17.25;55.01;99726.44;4438153;32;36476;-92
2021/08/27 20:51:29;;;;;;;;;;;;;;;16.99;56.76;99712.63;4436302;32;34898;-93
2021/08/27 20:53:57;;;;;;;;;;;;;;;16.99;56.45;99710.78;4412675;32;33639;-91
2021/08/27 20:56:26;;;;;;;;;;;;;;;17.05;56.66;99707.34;4437430;32;34210;-91
2021/08/27 20:58:55;;;;;;;;;;;;;;;17.13;55.75;99707.25;4437526;32;34880;-91
2021/08/27 21:01:25;;;;;;;;;;;;;;;16.98;56.49;99698.34;4439312;32;35672;-86
2021/08/27 21:03:54;;;;;;;;;;;;;;;16.98;56.47;99700.22;4437290;32;33837;-91
2021/08/27 21:06:22;;;;;;;;;;;;;;;16.92;56.61;99701.81;4437587;32;33013;-92
2021/08/27 21:08:49;;;;;;;;;;;;;;;16.98;55.94;99692.97;4438742;32;35358;-94
2021/08/27 21:11:17;;;;;;;;;;;;;;;16.97;56.13;99695.87;4425207;32;34844;-92
2021/08/27 21:13:49;;;;;;;;;;;;;;;17.00;55.67;99704.37;4435896;32;33275;-94
2021/08/27 21:16:16;;;;;;;;;;;;;;;16.92;55.83;99707.19;4437863;32;33927;-85
2021/08/27 21:18:54;;;;;;;;;;;;;;;16.89;55.82;99715.59;4439238;32;36011;-93
2021/08/27 21:21:27;;;;;;;;;;;;;;;16.80;55.86;99714.03;4425164;32;35313;-90
2021/08/27 21:23:56;;;;;;;;;;;;;;;16.62;56.39;99721.63;4439737;32;34391;-92
2021/08/27 21:26:25;;;;;;;;;;;;;;;16.62;56.67;99720.78;4423935;32;32786;-89
2021/08/27 21:28:52;;;;;;;;;;;;;;;16.62;56.73;99721.63;4436922;32;35085;-90
2021/08/27 21:31:21;;;;;;;;;;;;;;;16.34;58.02;99720.53;4439576;32;34023;-93
2021/08/27 21:33:50;;;;;;;;;;;;;;;16.45;57.64;99722.81;4437037;32;33701;-94
2021/08/27 21:36:18;;;;;;;;;;;;;;;16.53;56.80;99721.91;4415660;32;35019;-94
2021/08/27 21:38:47;;;;;;;;;;;;;;;16.52;56.80;99721.06;4436295;32;33962;-94
2021/08/27 21:41:15;;;;;;;;;;;;;;;16.32;57.99;99719.06;4437175;32;34588;-92
2021/08/27 21:43:43;;;;;;;;;;;;;;;16.23;58.73;99718.28;4438055;32;32360;-95
2021/08/27 21:46:13;;;;;;;;;;;;;;;16.25;58.84;99718.94;4437039;32;33655;-94
2021/08/27 21:48:44;;;;;;;;;;;;;;;16.40;58.43;99721.69;4437544;32;35567;-94
2021/08/27 21:51:12;;;;;;;;;;;;;;;16.28;58.54;99720.44;4437211;32;33976;-92
2021/08/27 21:53:40;;;;;;;;;;;;;;;16.14;58.82;99724.75;4436503;32;32578;-91
2021/08/27 21:56:08;;;;;;;;;;;;;;;16.41;58.16;99726.06;4438063;32;33794;-91
2021/08/27 21:58:36;;;;;;;;;;;;;;;16.45;57.43;99716.59;4435794;32;35099;-92
2021/08/27 22:01:04;;;;;;;;;;;;;;;16.48;57.02;99727.81;4412032;32;36317;-92